Weather at Martinique Aimé Césaire International Airport

Public forecast

Using degrees Celsius for public forecast. Weather courtesy of forecast.io.

Current aviation weather report (METAR) for Martinique Aimé Césaire International Airport

2024/06/13 21:00 (retrieved 22 minutes ago)

TFFF 132100Z AUTO 11009KT 070V130 CAVOK 30/24 Q1013 NOSIG

Aviation forecast (TAF) for Martinique Aimé Césaire International Airport

2024/06/13 18:17 (retrieved 3 hours ago)

TAF TFFF 131700Z 1318/1418 10010KT 9999 SCT030 BECMG 1400/1402 VRB03KT TEMPO 1410/1417 4500 SHRA BKN020TCU SCT030 BECMG 1410/1412 13010KT